createdAt,value
2022-09-01T00:12:36.818Z,19.75
2022-09-01T00:27:39.094Z,21.90
2022-09-01T00:42:43.462Z,28.02
2022-09-01T00:57:45.711Z,19.02
2022-09-01T01:12:51.758Z,26.33
2022-09-01T01:28:13.682Z,30.95
2022-09-01T01:43:20.075Z,47.00
2022-09-01T01:58:22.706Z,34.95
2022-09-01T02:13:30.286Z,45.50
2022-09-01T02:28:34.909Z,43.35
2022-09-01T02:43:39.928Z,47.22
2022-09-01T02:58:46.134Z,58.28
2022-09-01T03:13:48.858Z,56.97
2022-09-01T03:28:51.457Z,61.42
2022-09-01T03:43:54.984Z,61.08
2022-09-01T03:58:58.891Z,56.65
2022-09-01T04:14:01.561Z,47.33
2022-09-01T04:29:06.798Z,39.55
2022-09-01T04:44:09.588Z,39.47
2022-09-01T04:59:14.905Z,32.58
2022-09-01T05:14:21.444Z,30.80
2022-09-01T05:29:24.298Z,27.80
2022-09-01T05:44:28.959Z,26.23
2022-09-01T05:59:31.469Z,23.77
2022-09-01T06:14:38.997Z,23.10
2022-09-01T06:29:41.617Z,20.15
2022-09-01T06:44:47.663Z,20.75
2022-09-01T06:59:50.277Z,20.60
2022-09-01T07:30:20.939Z,17.98
2022-09-01T07:45:28.197Z,13.93
2022-09-01T08:00:37.133Z,10.85
2022-09-01T08:16:06.932Z,9.32
2022-09-01T08:31:11.303Z,9.10
2022-09-01T08:46:30.479Z,8.40
2022-09-01T09:02:00.599Z,10.80
2022-09-01T09:17:04.298Z,18.50
2022-09-01T09:32:22.458Z,10.02
2022-09-01T09:47:54.885Z,7.13
2022-09-01T10:03:09.998Z,5.72
2022-09-01T10:18:28.954Z,4.63
2022-09-01T10:33:31.678Z,5.40
2022-09-01T10:48:46.290Z,4.57
2022-09-01T11:03:56.393Z,5.70
2022-09-01T11:19:34.909Z,5.60
2022-09-01T11:34:41.904Z,5.38
2022-09-01T11:50:00.127Z,4.95
2022-09-01T12:05:04.295Z,4.97
2022-09-01T12:20:29.931Z,4.25
2022-09-01T12:35:32.280Z,4.32
2022-09-01T12:50:35.965Z,5.05
2022-09-01T13:05:42.644Z,3.80
2022-09-01T13:20:45.030Z,3.70
2022-09-01T13:35:47.752Z,3.85
2022-09-01T14:06:12.725Z,3.75
2022-09-01T14:21:15.444Z,3.83
2022-09-01T14:36:25.346Z,4.72
2022-09-01T15:06:52.313Z,3.45
2022-09-01T15:21:54.504Z,4.30
2022-09-01T15:36:59.727Z,3.50
2022-09-01T15:52:02.000Z,3.67
2022-09-01T16:07:04.227Z,4.53
2022-09-01T16:22:28.605Z,3.70
2022-09-01T16:37:48.989Z,3.97
2022-09-01T16:53:08.392Z,5.83
2022-09-01T17:08:26.798Z,3.35
2022-09-01T17:23:31.942Z,3.08
2022-09-01T17:38:46.135Z,2.90
2022-09-01T17:53:58.037Z,3.45
2022-09-01T18:09:00.326Z,3.58
2022-09-01T18:24:35.881Z,3.47
2022-09-01T18:40:03.140Z,4.38
2022-09-01T18:55:21.179Z,3.58
2022-09-01T19:10:31.440Z,6.13
2022-09-01T19:25:33.672Z,4.25
2022-09-01T19:40:37.398Z,4.78
2022-09-01T19:55:45.204Z,4.53
2022-09-01T20:11:01.204Z,4.85
2022-09-01T20:26:10.818Z,6.43
2022-09-01T20:41:19.477Z,4.93
2022-09-01T20:56:45.585Z,6.60
2022-09-01T21:11:49.339Z,6.40
2022-09-01T21:26:52.080Z,5.70
2022-09-01T21:41:54.298Z,7.13
2022-09-01T21:56:56.491Z,5.10
2022-09-01T22:11:58.703Z,4.95
2022-09-01T22:27:00.938Z,4.60
2022-09-01T22:42:03.808Z,3.67
2022-09-01T22:57:06.013Z,3.80
2022-09-01T23:12:08.255Z,3.67
2022-09-01T23:27:10.471Z,3.42
2022-09-01T23:42:12.723Z,3.85
2022-09-01T23:57:15.348Z,5.00
